Hlavní strana
METAR-TAF:

METAR-TAF

Letiště :

Lappeenranta, Finsko

zeměpisná šířka: 61-02-45N, zeměpisná délka: 028-08-55E, výška: 106 m

Aktuální stav počasí

Zpráva byla vytvořena před 26 minutami, v 20:20 UTC
Východní vítr 7 kt, proměnlivý mezi východoseverovýchodním a jihovýchodním
Teplota 0°C
Vlhkost vzduchu 100%
Tlak 1017 hPa
Viditelnost 10 km a více
Zataženo ve výšce 300 ft

METAR: EFLP 122020Z AUTO 10007KT 060V130 9999 OVC003 M00/M00 Q1017

Čas: 22:46 (20:46 UTC)


TAF: chybějící

Stav a předpovědi počasí z více než 4 000 letišť (zprávy METAR a TAF).

Červené a žluté tečky na mapě představují dostupné meteorologické stanice.

Když kurzor umístíte na tečku, zobrazí se název stanice.

Pak kliknutím zobrazíte stav a předpověď počasí.

Chcete-li změnit mapu, kliknutím na zelené tlačítko se znaménkem +mapu přiblížíte, kliknutím na zelené tlačítko se znaménkem – mapu oddálíte a kliknutím na zelené šipky přejdete na sousední mapy.


METAR-TAF: